sensor_id;sensor_type;location;lat;lon;timestamp;P1;durP1;ratioP1;P2;durP2;ratioP2
5026;SDS011;2532;52.480;13.354;2023-05-24T04:01:38;19.70;;;4.83;;
5026;SDS011;2532;52.480;13.354;2023-05-24T04:04:05;14.17;;;4.20;;
5026;SDS011;2532;52.480;13.354;2023-05-24T04:06:32;16.20;;;4.50;;
5026;SDS011;2532;52.480;13.354;2023-05-24T04:09:00;10.60;;;3.83;;
5026;SDS011;2532;52.480;13.354;2023-05-24T04:11:29;22.03;;;4.73;;
5026;SDS011;2532;52.480;13.354;2023-05-24T04:13:57;14.33;;;4.10;;
5026;SDS011;2532;52.480;13.354;2023-05-24T04:16:25;19.03;;;5.97;;
5026;SDS011;2532;52.480;13.354;2023-05-24T04:18:54;15.27;;;5.30;;
5026;SDS011;2532;52.480;13.354;2023-05-24T04:21:21;20.50;;;6.13;;
5026;SDS011;2532;52.480;13.354;2023-05-24T04:23:48;13.90;;;5.47;;
5026;SDS011;2532;52.480;13.354;2023-05-24T04:26:15;19.90;;;5.27;;
5026;SDS011;2532;52.480;13.354;2023-05-24T04:28:42;19.53;;;4.83;;
5026;SDS011;2532;52.480;13.354;2023-05-24T04:31:09;12.47;;;5.30;;
5026;SDS011;2532;52.480;13.354;2023-05-24T04:33:36;24.10;;;5.60;;
5026;SDS011;2532;52.480;13.354;2023-05-24T04:36:05;15.80;;;4.90;;
5026;SDS011;2532;52.480;13.354;2023-05-24T04:38:35;21.73;;;5.63;;
5026;SDS011;2532;52.480;13.354;2023-05-24T04:41:02;18.17;;;5.37;;
5026;SDS011;2532;52.480;13.354;2023-05-24T04:43:30;25.47;;;5.47;;
5026;SDS011;2532;52.480;13.354;2023-05-24T04:45:58;21.60;;;5.93;;
5026;SDS011;2532;52.480;13.354;2023-05-24T04:48:25;20.50;;;4.50;;
5026;SDS011;2532;52.480;13.354;2023-05-24T04:50:52;12.97;;;5.47;;
5026;SDS011;2532;52.480;13.354;2023-05-24T04:53:21;22.20;;;5.40;;
5026;SDS011;2532;52.480;13.354;2023-05-24T04:55:49;21.73;;;4.60;;
5026;SDS011;2532;52.480;13.354;2023-05-24T04:58:16;19.17;;;6.67;;
5026;SDS011;2532;52.480;13.354;2023-05-24T05:00:44;17.53;;;4.90;;
5026;SDS011;2532;52.480;13.354;2023-05-24T05:03:11;20.27;;;5.67;;
5026;SDS011;2532;52.480;13.354;2023-05-24T05:05:38;21.97;;;6.03;;
5026;SDS011;2532;52.480;13.354;2023-05-24T05:08:05;19.47;;;5.23;;
5026;SDS011;2532;52.480;13.354;2023-05-24T05:10:34;18.10;;;5.47;;
5026;SDS011;2532;52.480;13.354;2023-05-24T05:13:01;17.43;;;5.17;;
5026;SDS011;2532;52.480;13.354;2023-05-24T05:15:28;17.00;;;5.43;;
5026;SDS011;2532;52.480;13.354;2023-05-24T05:17:56;22.20;;;6.10;;
5026;SDS011;2532;52.480;13.354;2023-05-24T05:20:24;18.43;;;5.23;;
5026;SDS011;2532;52.480;13.354;2023-05-24T05:22:51;23.23;;;5.17;;
5026;SDS011;2532;52.480;13.354;2023-05-24T05:25:18;14.73;;;5.23;;
5026;SDS011;2532;52.480;13.354;2023-05-24T05:27:47;19.50;;;6.30;;
5026;SDS011;2532;52.480;13.354;2023-05-24T05:30:14;15.63;;;5.33;;
5026;SDS011;2532;52.480;13.354;2023-05-24T05:32:41;24.97;;;6.27;;
5026;SDS011;2532;52.480;13.354;2023-05-24T05:35:08;27.53;;;6.13;;
5026;SDS011;2532;52.480;13.354;2023-05-24T05:37:35;22.53;;;6.70;;
5026;SDS011;2532;52.480;13.354;2023-05-24T05:40:02;27.37;;;6.47;;
5026;SDS011;2532;52.480;13.354;2023-05-24T05:42:29;19.90;;;5.93;;
5026;SDS011;2532;52.480;13.354;2023-05-24T05:44:58;23.87;;;6.03;;
5026;SDS011;2532;52.480;13.354;2023-05-24T05:47:25;17.27;;;5.93;;
5026;SDS011;2532;52.480;13.354;2023-05-24T05:49:52;26.13;;;6.70;;
5026;SDS011;2532;52.480;13.354;2023-05-24T05:52:18;17.77;;;6.20;;
5026;SDS011;2532;52.480;13.354;2023-05-24T05:54:45;20.70;;;5.87;;
5026;SDS011;2532;52.480;13.354;2023-05-24T05:57:12;24.97;;;6.70;;
5026;SDS011;2532;52.480;13.354;2023-05-24T05:59:40;26.03;;;7.20;;
5026;SDS011;2532;52.480;13.354;2023-05-24T06:02:08;20.60;;;6.10;;
5026;SDS011;2532;52.480;13.354;2023-05-24T06:04:36;26.90;;;8.10;;
5026;SDS011;2532;52.480;13.354;2023-05-24T06:07:04;21.30;;;5.83;;
5026;SDS011;2532;52.480;13.354;2023-05-24T06:09:31;19.07;;;6.40;;
5026;SDS011;2532;52.480;13.354;2023-05-24T06:11:58;14.60;;;6.00;;
5026;SDS011;2532;52.480;13.354;2023-05-24T06:14:25;19.40;;;5.93;;
5026;SDS011;2532;52.480;13.354;2023-05-24T06:16:52;22.80;;;6.63;;
5026;SDS011;2532;52.480;13.354;2023-05-24T06:19:20;21.80;;;5.63;;
5026;SDS011;2532;52.480;13.354;2023-05-24T06:21:48;24.77;;;6.67;;
5026;SDS011;2532;52.480;13.354;2023-05-24T06:24:16;27.00;;;7.30;;
5026;SDS011;2532;52.480;13.354;2023-05-24T06:26:44;26.10;;;7.00;;
5026;SDS011;2532;52.480;13.354;2023-05-24T06:29:12;23.20;;;6.37;;
5026;SDS011;2532;52.480;13.354;2023-05-24T06:31:42;20.57;;;5.90;;
5026;SDS011;2532;52.480;13.354;2023-05-24T06:34:11;21.73;;;6.80;;
5026;SDS011;2532;52.480;13.354;2023-05-24T06:36:42;19.10;;;6.07;;
5026;SDS011;2532;52.480;13.354;2023-05-24T06:39:11;20.77;;;6.80;;
5026;SDS011;2532;52.480;13.354;2023-05-24T06:41:39;28.60;;;7.40;;
5026;SDS011;2532;52.480;13.354;2023-05-24T06:44:16;24.63;;;8.23;;
5026;SDS011;2532;52.480;13.354;2023-05-24T06:46:55;23.60;;;6.43;;
5026;SDS011;2532;52.480;13.354;2023-05-24T06:49:26;16.73;;;5.50;;
5026;SDS011;2532;52.480;13.354;2023-05-24T06:51:57;24.87;;;6.50;;
5026;SDS011;2532;52.480;13.354;2023-05-24T06:54:24;19.87;;;6.07;;
5026;SDS011;2532;52.480;13.354;2023-05-24T06:56:50;28.70;;;6.93;;
5026;SDS011;2532;52.480;13.354;2023-05-24T06:59:18;23.40;;;6.60;;
5026;SDS011;2532;52.480;13.354;2023-05-24T07:01:48;23.90;;;6.30;;
5026;SDS011;2532;52.480;13.354;2023-05-24T07:04:21;30.97;;;7.13;;
5026;SDS011;2532;52.480;13.354;2023-05-24T07:06:49;24.03;;;7.43;;
5026;SDS011;2532;52.480;13.354;2023-05-24T07:09:17;33.03;;;7.47;;
5026;SDS011;2532;52.480;13.354;2023-05-24T07:11:44;24.40;;;6.50;;
5026;SDS011;2532;52.480;13.354;2023-05-24T07:14:11;25.17;;;5.87;;
5026;SDS011;2532;52.480;13.354;2023-05-24T07:16:41;24.33;;;6.97;;
5026;SDS011;2532;52.480;13.354;2023-05-24T07:19:08;26.57;;;7.13;;
5026;SDS011;2532;52.480;13.354;2023-05-24T07:21:37;33.33;;;8.17;;
5026;SDS011;2532;52.480;13.354;2023-05-24T07:24:04;22.90;;;7.10;;
5026;SDS011;2532;52.480;13.354;2023-05-24T07:26:35;34.43;;;7.80;;
5026;SDS011;2532;52.480;13.354;2023-05-24T07:29:02;22.20;;;7.07;;
5026;SDS011;2532;52.480;13.354;2023-05-24T07:31:29;25.93;;;7.60;;
5026;SDS011;2532;52.480;13.354;2023-05-24T07:33:58;25.10;;;6.63;;
5026;SDS011;2532;52.480;13.354;2023-05-24T07:36:25;20.03;;;7.00;;
5026;SDS011;2532;52.480;13.354;2023-05-24T07:38:56;17.40;;;7.20;;
5026;SDS011;2532;52.480;13.354;2023-05-24T07:41:24;27.27;;;7.77;;
5026;SDS011;2532;52.480;13.354;2023-05-24T07:43:54;20.43;;;7.10;;
5026;SDS011;2532;52.480;13.354;2023-05-24T07:46:21;25.73;;;7.30;;
5026;SDS011;2532;52.480;13.354;2023-05-24T07:48:48;27.80;;;7.93;;
5026;SDS011;2532;52.480;13.354;2023-05-24T07:51:15;25.70;;;7.50;;
5026;SDS011;2532;52.480;13.354;2023-05-24T07:53:42;25.57;;;6.90;;
5026;SDS011;2532;52.480;13.354;2023-05-24T07:56:09;20.13;;;6.27;;
5026;SDS011;2532;52.480;13.354;2023-05-24T07:58:36;18.73;;;6.10;;
5026;SDS011;2532;52.480;13.354;2023-05-24T08:01:06;19.00;;;6.87;;
5026;SDS011;2532;52.480;13.354;2023-05-24T08:03:33;22.37;;;7.77;;
5026;SDS011;2532;52.480;13.354;2023-05-24T08:06:00;24.93;;;6.10;;
5026;SDS011;2532;52.480;13.354;2023-05-24T08:08:29;20.87;;;7.20;;
5026;SDS011;2532;52.480;13.354;2023-05-24T08:10:56;21.63;;;6.33;;
5026;SDS011;2532;52.480;13.354;2023-05-24T08:13:23;18.87;;;6.80;;
5026;SDS011;2532;52.480;13.354;2023-05-24T08:15:50;19.37;;;5.63;;
5026;SDS011;2532;52.480;13.354;2023-05-24T08:18:19;22.70;;;7.00;;
5026;SDS011;2532;52.480;13.354;2023-05-24T08:20:46;20.63;;;6.63;;
5026;SDS011;2532;52.480;13.354;2023-05-24T08:23:13;16.77;;;5.90;;
5026;SDS011;2532;52.480;13.354;2023-05-24T08:25:40;23.23;;;6.50;;
5026;SDS011;2532;52.480;13.354;2023-05-24T08:28:06;17.80;;;6.23;;
5026;SDS011;2532;52.480;13.354;2023-05-24T08:30:34;23.97;;;6.83;;
5026;SDS011;2532;52.480;13.354;2023-05-24T08:33:02;24.80;;;7.20;;
5026;SDS011;2532;52.480;13.354;2023-05-24T08:35:30;20.80;;;6.57;;
5026;SDS011;2532;52.480;13.354;2023-05-24T08:37:57;22.67;;;7.30;;
5026;SDS011;2532;52.480;13.354;2023-05-24T08:40:24;18.17;;;6.50;;
5026;SDS011;2532;52.480;13.354;2023-05-24T08:42:51;20.43;;;7.00;;
5026;SDS011;2532;52.480;13.354;2023-05-24T08:45:19;20.00;;;5.90;;
5026;SDS011;2532;52.480;13.354;2023-05-24T08:47:47;20.17;;;5.50;;
5026;SDS011;2532;52.480;13.354;2023-05-24T08:50:16;29.90;;;7.00;;
5026;SDS011;2532;52.480;13.354;2023-05-24T08:52:45;20.17;;;6.53;;
5026;SDS011;2532;52.480;13.354;2023-05-24T08:55:12;26.03;;;6.10;;
5026;SDS011;2532;52.480;13.354;2023-05-24T08:57:41;19.07;;;6.20;;
5026;SDS011;2532;52.480;13.354;2023-05-24T09:00:11;21.00;;;7.00;;
5026;SDS011;2532;52.480;13.354;2023-05-24T09:02:39;20.50;;;6.27;;
5026;SDS011;2532;52.480;13.354;2023-05-24T09:05:08;13.37;;;6.20;;
5026;SDS011;2532;52.480;13.354;2023-05-24T09:07:38;20.43;;;6.60;;
5026;SDS011;2532;52.480;13.354;2023-05-24T09:10:09;15.23;;;4.77;;
5026;SDS011;2532;52.480;13.354;2023-05-24T09:12:36;18.07;;;5.30;;
5026;SDS011;2532;52.480;13.354;2023-05-24T09:15:06;20.77;;;5.80;;
5026;SDS011;2532;52.480;13.354;2023-05-24T09:17:34;20.23;;;6.53;;
5026;SDS011;2532;52.480;13.354;2023-05-24T09:20:02;24.30;;;5.50;;
5026;SDS011;2532;52.480;13.354;2023-05-24T09:22:34;11.70;;;4.37;;
5026;SDS011;2532;52.480;13.354;2023-05-24T09:25:04;13.73;;;5.13;;
5026;SDS011;2532;52.480;13.354;2023-05-24T09:27:34;20.60;;;4.97;;
5026;SDS011;2532;52.480;13.354;2023-05-24T09:30:01;17.77;;;5.60;;
5026;SDS011;2532;52.480;13.354;2023-05-24T09:32:32;16.80;;;5.00;;
5026;SDS011;2532;52.480;13.354;2023-05-24T09:34:59;13.47;;;5.10;;
5026;SDS011;2532;52.480;13.354;2023-05-24T09:37:26;15.27;;;4.47;;
5026;SDS011;2532;52.480;13.354;2023-05-24T09:39:53;15.37;;;4.63;;
5026;SDS011;2532;52.480;13.354;2023-05-24T09:42:22;13.13;;;5.03;;
5026;SDS011;2532;52.480;13.354;2023-05-24T09:44:58;14.93;;;5.20;;
5026;SDS011;2532;52.480;13.354;2023-05-24T09:47:29;16.80;;;5.43;;
5026;SDS011;2532;52.480;13.354;2023-05-24T09:49:57;13.40;;;5.00;;
5026;SDS011;2532;52.480;13.354;2023-05-24T09:52:24;15.13;;;4.90;;
5026;SDS011;2532;52.480;13.354;2023-05-24T09:54:52;17.43;;;4.43;;
5026;SDS011;2532;52.480;13.354;2023-05-24T09:57:19;22.83;;;5.40;;
5026;SDS011;2532;52.480;13.354;2023-05-24T09:59:47;8.50;;;3.67;;
5026;SDS011;2532;52.480;13.354;2023-05-24T10:02:16;13.23;;;5.00;;
5026;SDS011;2532;52.480;13.354;2023-05-24T10:04:46;14.13;;;4.83;;
5026;SDS011;2532;52.480;13.354;2023-05-24T10:07:14;18.37;;;6.33;;
5026;SDS011;2532;52.480;13.354;2023-05-24T10:09:41;18.70;;;5.50;;
5026;SDS011;2532;52.480;13.354;2023-05-24T10:12:10;17.93;;;5.20;;
5026;SDS011;2532;52.480;13.354;2023-05-24T10:14:37;19.50;;;5.40;;
5026;SDS011;2532;52.480;13.354;2023-05-24T10:20:27;7.80;;;4.63;;
5026;SDS011;2532;52.480;13.354;2023-05-24T10:22:54;8.67;;;4.40;;
5026;SDS011;2532;52.480;13.354;2023-05-24T10:25:26;13.07;;;5.47;;
5026;SDS011;2532;52.480;13.354;2023-05-24T10:27:54;21.47;;;5.50;;
5026;SDS011;2532;52.480;13.354;2023-05-24T10:30:25;15.20;;;5.50;;
5026;SDS011;2532;52.480;13.354;2023-05-24T10:32:56;16.30;;;5.17;;
5026;SDS011;2532;52.480;13.354;2023-05-24T10:35:27;15.23;;;4.47;;
5026;SDS011;2532;52.480;13.354;2023-05-24T10:37:55;20.70;;;4.90;;
5026;SDS011;2532;52.480;13.354;2023-05-24T10:40:22;17.67;;;4.70;;
5026;SDS011;2532;52.480;13.354;2023-05-24T10:42:50;16.07;;;4.73;;
5026;SDS011;2532;52.480;13.354;2023-05-24T10:45:31;12.27;;;4.30;;
5026;SDS011;2532;52.480;13.354;2023-05-24T10:54:09;11.93;;;4.47;;
5026;SDS011;2532;52.480;13.354;2023-05-24T10:56:43;11.60;;;5.00;;
5026;SDS011;2532;52.480;13.354;2023-05-24T10:59:27;10.13;;;4.53;;
5026;SDS011;2532;52.480;13.354;2023-05-24T11:01:57;11.03;;;4.67;;
5026;SDS011;2532;52.480;13.354;2023-05-24T11:04:25;13.83;;;4.77;;
5026;SDS011;2532;52.480;13.354;2023-05-24T11:07:00;9.50;;;4.80;;
5026;SDS011;2532;52.480;13.354;2023-05-24T11:09:29;17.30;;;5.50;;
5026;SDS011;2532;52.480;13.354;2023-05-24T11:11:59;12.13;;;4.83;;
5026;SDS011;2532;52.480;13.354;2023-05-24T11:14:32;13.00;;;4.67;;
5026;SDS011;2532;52.480;13.354;2023-05-24T11:17:02;13.10;;;5.00;;
5026;SDS011;2532;52.480;13.354;2023-05-24T11:19:30;10.67;;;4.73;;
5026;SDS011;2532;52.480;13.354;2023-05-24T11:22:01;11.10;;;3.97;;
5026;SDS011;2532;52.480;13.354;2023-05-24T11:24:30;10.80;;;4.00;;
5026;SDS011;2532;52.480;13.354;2023-05-24T11:26:58;9.40;;;3.90;;
5026;SDS011;2532;52.480;13.354;2023-05-24T11:29:26;9.60;;;3.90;;
5026;SDS011;2532;52.480;13.354;2023-05-24T11:31:54;10.47;;;5.07;;
5026;SDS011;2532;52.480;13.354;2023-05-24T11:34:25;13.07;;;4.60;;
5026;SDS011;2532;52.480;13.354;2023-05-24T11:36:52;8.73;;;4.30;;
5026;SDS011;2532;52.480;13.354;2023-05-24T11:39:20;13.37;;;3.90;;
5026;SDS011;2532;52.480;13.354;2023-05-24T11:41:49;10.20;;;4.33;;
5026;SDS011;2532;52.480;13.354;2023-05-24T11:44:19;10.80;;;5.00;;
5026;SDS011;2532;52.480;13.354;2023-05-24T11:46:46;7.00;;;3.87;;
5026;SDS011;2532;52.480;13.354;2023-05-24T11:49:14;9.87;;;4.30;;
5026;SDS011;2532;52.480;13.354;2023-05-24T11:51:41;10.27;;;3.70;;
5026;SDS011;2532;52.480;13.354;2023-05-24T11:54:08;11.83;;;4.10;;
5026;SDS011;2532;52.480;13.354;2023-05-24T11:56:37;11.87;;;4.30;;
5026;SDS011;2532;52.480;13.354;2023-05-24T11:59:13;6.40;;;4.00;;
5026;SDS011;2532;52.480;13.354;2023-05-24T12:01:41;7.90;;;4.27;;
5026;SDS011;2532;52.480;13.354;2023-05-24T12:04:09;9.40;;;5.20;;
5026;SDS011;2532;52.480;13.354;2023-05-24T12:06:37;12.13;;;4.10;;
5026;SDS011;2532;52.480;13.354;2023-05-24T12:09:05;12.17;;;4.20;;
5026;SDS011;2532;52.480;13.354;2023-05-24T12:11:38;10.90;;;4.33;;
5026;SDS011;2532;52.480;13.354;2023-05-24T12:14:06;9.60;;;4.30;;
5026;SDS011;2532;52.480;13.354;2023-05-24T12:16:36;9.90;;;4.57;;
5026;SDS011;2532;52.480;13.354;2023-05-24T12:19:03;12.60;;;3.70;;
5026;SDS011;2532;52.480;13.354;2023-05-24T12:21:31;7.00;;;3.43;;
5026;SDS011;2532;52.480;13.354;2023-05-24T12:24:08;11.63;;;3.80;;
5026;SDS011;2532;52.480;13.354;2023-05-24T12:26:40;9.57;;;3.50;;
5026;SDS011;2532;52.480;13.354;2023-05-24T12:29:08;7.90;;;3.50;;
5026;SDS011;2532;52.480;13.354;2023-05-24T12:31:37;7.40;;;3.67;;
5026;SDS011;2532;52.480;13.354;2023-05-24T12:34:06;7.70;;;3.67;;
5026;SDS011;2532;52.480;13.354;2023-05-24T12:36:36;10.27;;;3.97;;
5026;SDS011;2532;52.480;13.354;2023-05-24T12:39:16;10.37;;;4.10;;
5026;SDS011;2532;52.480;13.354;2023-05-24T12:41:48;10.67;;;4.67;;
5026;SDS011;2532;52.480;13.354;2023-05-24T12:44:16;11.67;;;5.00;;
5026;SDS011;2532;52.480;13.354;2023-05-24T12:46:43;12.93;;;4.37;;
5026;SDS011;2532;52.480;13.354;2023-05-24T12:49:10;15.70;;;5.47;;
5026;SDS011;2532;52.480;13.354;2023-05-24T12:51:37;10.00;;;4.73;;
5026;SDS011;2532;52.480;13.354;2023-05-24T12:54:04;13.37;;;5.13;;
5026;SDS011;2532;52.480;13.354;2023-05-24T12:56:31;12.63;;;4.70;;
5026;SDS011;2532;52.480;13.354;2023-05-24T12:59:00;17.63;;;4.97;;
5026;SDS011;2532;52.480;13.354;2023-05-24T13:01:26;12.73;;;4.33;;
5026;SDS011;2532;52.480;13.354;2023-05-24T13:03:55;14.93;;;4.97;;
5026;SDS011;2532;52.480;13.354;2023-05-24T13:06:23;13.07;;;4.57;;
5026;SDS011;2532;52.480;13.354;2023-05-24T13:08:50;14.23;;;4.90;;
5026;SDS011;2532;52.480;13.354;2023-05-24T13:11:17;9.50;;;4.80;;
5026;SDS011;2532;52.480;13.354;2023-05-24T13:13:44;8.10;;;4.50;;
5026;SDS011;2532;52.480;13.354;2023-05-24T13:16:12;14.43;;;4.57;;
5026;SDS011;2532;52.480;13.354;2023-05-24T13:18:39;15.20;;;4.50;;
5026;SDS011;2532;52.480;13.354;2023-05-24T13:21:06;10.70;;;5.20;;
5026;SDS011;2532;52.480;13.354;2023-05-24T13:23:33;14.77;;;5.07;;
5026;SDS011;2532;52.480;13.354;2023-05-24T13:26:02;13.63;;;4.47;;
5026;SDS011;2532;52.480;13.354;2023-05-24T13:28:31;10.40;;;4.80;;
5026;SDS011;2532;52.480;13.354;2023-05-24T13:30:59;9.50;;;4.17;;
5026;SDS011;2532;52.480;13.354;2023-05-24T13:33:27;8.53;;;4.40;;
5026;SDS011;2532;52.480;13.354;2023-05-24T13:35:56;12.70;;;4.00;;
5026;SDS011;2532;52.480;13.354;2023-05-24T13:38:23;11.07;;;4.80;;
5026;SDS011;2532;52.480;13.354;2023-05-24T13:40:50;9.10;;;5.10;;
5026;SDS011;2532;52.480;13.354;2023-05-24T13:43:19;11.63;;;5.30;;
5026;SDS011;2532;52.480;13.354;2023-05-24T13:45:46;10.50;;;4.60;;
5026;SDS011;2532;52.480;13.354;2023-05-24T13:48:14;13.20;;;4.90;;
5026;SDS011;2532;52.480;13.354;2023-05-24T13:50:42;12.57;;;5.03;;
5026;SDS011;2532;52.480;13.354;2023-05-24T13:53:09;11.70;;;4.30;;
5026;SDS011;2532;52.480;13.354;2023-05-24T13:55:36;15.77;;;4.57;;
5026;SDS011;2532;52.480;13.354;2023-05-24T13:58:03;13.30;;;4.03;;
5026;SDS011;2532;52.480;13.354;2023-05-24T14:00:30;11.53;;;4.67;;
5026;SDS011;2532;52.480;13.354;2023-05-24T14:02:59;11.67;;;4.37;;
5026;SDS011;2532;52.480;13.354;2023-05-24T14:05:29;12.10;;;5.23;;
5026;SDS011;2532;52.480;13.354;2023-05-24T14:07:57;13.63;;;4.70;;
5026;SDS011;2532;52.480;13.354;2023-05-24T14:10:30;14.23;;;4.50;;
5026;SDS011;2532;52.480;13.354;2023-05-24T14:12:58;11.20;;;5.10;;
5026;SDS011;2532;52.480;13.354;2023-05-24T14:15:25;9.03;;;5.10;;
5026;SDS011;2532;52.480;13.354;2023-05-24T14:17:51;7.90;;;4.50;;
5026;SDS011;2532;52.480;13.354;2023-05-24T14:20:19;9.77;;;4.63;;
5026;SDS011;2532;52.480;13.354;2023-05-24T14:22:45;11.43;;;4.40;;
5026;SDS011;2532;52.480;13.354;2023-05-24T14:25:14;10.33;;;4.50;;
5026;SDS011;2532;52.480;13.354;2023-05-24T14:27:41;10.70;;;4.10;;
5026;SDS011;2532;52.480;13.354;2023-05-24T14:30:10;10.83;;;4.53;;
5026;SDS011;2532;52.480;13.354;2023-05-24T14:32:37;10.43;;;4.70;;
5026;SDS011;2532;52.480;13.354;2023-05-24T14:35:04;12.03;;;4.07;;
5026;SDS011;2532;52.480;13.354;2023-05-24T14:37:31;12.80;;;4.30;;
5026;SDS011;2532;52.480;13.354;2023-05-24T14:39:58;10.67;;;4.60;;
5026;SDS011;2532;52.480;13.354;2023-05-24T14:42:27;11.03;;;4.10;;
5026;SDS011;2532;52.480;13.354;2023-05-24T14:44:54;11.67;;;4.20;;
5026;SDS011;2532;52.480;13.354;2023-05-24T14:47:20;9.27;;;4.90;;
5026;SDS011;2532;52.480;13.354;2023-05-24T14:49:47;11.43;;;5.33;;
5026;SDS011;2532;52.480;13.354;2023-05-24T14:52:14;15.40;;;5.03;;
5026;SDS011;2532;52.480;13.354;2023-05-24T14:54:41;9.83;;;4.40;;
5026;SDS011;2532;52.480;13.354;2023-05-24T14:57:08;10.57;;;3.90;;
5026;SDS011;2532;52.480;13.354;2023-05-24T14:59:37;11.60;;;4.40;;
5026;SDS011;2532;52.480;13.354;2023-05-24T15:02:04;8.47;;;4.27;;
5026;SDS011;2532;52.480;13.354;2023-05-24T15:04:31;11.27;;;4.60;;
5026;SDS011;2532;52.480;13.354;2023-05-24T15:06:58;10.50;;;4.33;;
5026;SDS011;2532;52.480;13.354;2023-05-24T15:09:25;10.67;;;4.50;;
5026;SDS011;2532;52.480;13.354;2023-05-24T15:11:52;9.87;;;4.53;;
5026;SDS011;2532;52.480;13.354;2023-05-24T15:14:19;9.97;;;4.70;;
5026;SDS011;2532;52.480;13.354;2023-05-24T15:16:47;14.37;;;5.17;;
5026;SDS011;2532;52.480;13.354;2023-05-24T15:19:14;8.97;;;4.77;;
5026;SDS011;2532;52.480;13.354;2023-05-24T15:21:41;13.33;;;4.30;;
5026;SDS011;2532;52.480;13.354;2023-05-24T15:24:08;7.73;;;4.20;;
5026;SDS011;2532;52.480;13.354;2023-05-24T15:26:35;9.47;;;4.30;;
5026;SDS011;2532;52.480;13.354;2023-05-24T15:29:02;13.43;;;4.10;;
5026;SDS011;2532;52.480;13.354;2023-05-24T15:31:29;7.87;;;3.97;;
5026;SDS011;2532;52.480;13.354;2023-05-24T15:33:57;11.47;;;4.30;;
5026;SDS011;2532;52.480;13.354;2023-05-24T15:36:24;7.43;;;4.07;;
5026;SDS011;2532;52.480;13.354;2023-05-24T15:38:51;10.80;;;3.47;;
5026;SDS011;2532;52.480;13.354;2023-05-24T15:41:18;8.07;;;3.63;;
5026;SDS011;2532;52.480;13.354;2023-05-24T15:43:44;7.83;;;4.60;;
5026;SDS011;2532;52.480;13.354;2023-05-24T15:46:11;10.80;;;4.77;;
5026;SDS011;2532;52.480;13.354;2023-05-24T15:48:38;11.77;;;5.00;;
5026;SDS011;2532;52.480;13.354;2023-05-24T15:51:06;13.80;;;4.67;;
5026;SDS011;2532;52.480;13.354;2023-05-24T15:53:33;6.90;;;3.90;;
5026;SDS011;2532;52.480;13.354;2023-05-24T15:56:00;7.10;;;3.87;;
5026;SDS011;2532;52.480;13.354;2023-05-24T15:58:27;9.90;;;4.27;;
5026;SDS011;2532;52.480;13.354;2023-05-24T16:00:54;9.40;;;4.17;;
5026;SDS011;2532;52.480;13.354;2023-05-24T16:03:21;9.77;;;4.40;;
5026;SDS011;2532;52.480;13.354;2023-05-24T16:05:48;11.23;;;4.50;;
5026;SDS011;2532;52.480;13.354;2023-05-24T16:08:16;9.03;;;4.20;;
5026;SDS011;2532;52.480;13.354;2023-05-24T16:10:44;11.97;;;4.73;;
5026;SDS011;2532;52.480;13.354;2023-05-24T16:13:12;8.03;;;3.57;;
5026;SDS011;2532;52.480;13.354;2023-05-24T16:15:39;8.10;;;4.33;;
5026;SDS011;2532;52.480;13.354;2023-05-24T16:18:06;9.70;;;3.83;;
5026;SDS011;2532;52.480;13.354;2023-05-24T16:20:33;9.93;;;4.87;;
5026;SDS011;2532;52.480;13.354;2023-05-24T16:23:01;10.87;;;5.00;;
5026;SDS011;2532;52.480;13.354;2023-05-24T16:25:30;13.30;;;4.37;;
5026;SDS011;2532;52.480;13.354;2023-05-24T16:27:56;8.90;;;4.47;;
5026;SDS011;2532;52.480;13.354;2023-05-24T16:30:24;11.70;;;5.40;;
5026;SDS011;2532;52.480;13.354;2023-05-24T16:32:51;9.40;;;5.27;;
5026;SDS011;2532;52.480;13.354;2023-05-24T16:35:18;10.77;;;4.70;;
5026;SDS011;2532;52.480;13.354;2023-05-24T16:37:45;8.50;;;4.43;;
5026;SDS011;2532;52.480;13.354;2023-05-24T16:40:13;8.87;;;4.80;;
5026;SDS011;2532;52.480;13.354;2023-05-24T16:42:42;11.80;;;5.43;;
5026;SDS011;2532;52.480;13.354;2023-05-24T16:45:09;11.53;;;4.50;;
5026;SDS011;2532;52.480;13.354;2023-05-24T16:47:36;14.00;;;5.97;;
5026;SDS011;2532;52.480;13.354;2023-05-24T16:50:03;12.27;;;6.97;;
5026;SDS011;2532;52.480;13.354;2023-05-24T16:52:33;9.73;;;6.07;;
5026;SDS011;2532;52.480;13.354;2023-05-24T16:55:00;10.93;;;5.30;;
5026;SDS011;2532;52.480;13.354;2023-05-24T16:57:27;8.10;;;4.70;;
5026;SDS011;2532;52.480;13.354;2023-05-24T16:59:56;10.57;;;5.67;;
5026;SDS011;2532;52.480;13.354;2023-05-24T17:02:23;15.40;;;8.70;;
5026;SDS011;2532;52.480;13.354;2023-05-24T17:04:50;12.70;;;5.83;;
5026;SDS011;2532;52.480;13.354;2023-05-24T17:07:17;14.13;;;7.70;;
5026;SDS011;2532;52.480;13.354;2023-05-24T17:09:44;13.60;;;6.10;;
5026;SDS011;2532;52.480;13.354;2023-05-24T17:12:11;10.33;;;4.80;;
5026;SDS011;2532;52.480;13.354;2023-05-24T17:14:38;9.37;;;4.50;;
5026;SDS011;2532;52.480;13.354;2023-05-24T17:17:07;9.23;;;5.33;;
5026;SDS011;2532;52.480;13.354;2023-05-24T17:19:34;13.43;;;5.97;;
5026;SDS011;2532;52.480;13.354;2023-05-24T17:22:01;18.20;;;5.63;;
5026;SDS011;2532;52.480;13.354;2023-05-24T17:24:29;8.90;;;4.83;;
5026;SDS011;2532;52.480;13.354;2023-05-24T17:26:57;11.93;;;7.60;;
5026;SDS011;2532;52.480;13.354;2023-05-24T17:29:24;10.53;;;5.80;;
5026;SDS011;2532;52.480;13.354;2023-05-24T17:31:54;9.53;;;5.37;;
5026;SDS011;2532;52.480;13.354;2023-05-24T17:34:22;9.00;;;5.33;;
5026;SDS011;2532;52.480;13.354;2023-05-24T17:36:49;14.97;;;5.63;;
5026;SDS011;2532;52.480;13.354;2023-05-24T17:39:16;8.60;;;4.40;;
5026;SDS011;2532;52.480;13.354;2023-05-24T17:41:44;13.50;;;4.83;;
5026;SDS011;2532;52.480;13.354;2023-05-24T17:44:11;9.17;;;4.10;;
5026;SDS011;2532;52.480;13.354;2023-05-24T17:46:37;9.17;;;4.73;;
5026;SDS011;2532;52.480;13.354;2023-05-24T17:49:05;9.27;;;5.07;;
5026;SDS011;2532;52.480;13.354;2023-05-24T17:51:33;11.17;;;5.90;;
5026;SDS011;2532;52.480;13.354;2023-05-24T17:54:02;14.13;;;5.73;;
5026;SDS011;2532;52.480;13.354;2023-05-24T17:56:30;10.53;;;5.03;;
5026;SDS011;2532;52.480;13.354;2023-05-24T17:58:57;10.60;;;4.80;;
5026;SDS011;2532;52.480;13.354;2023-05-24T18:01:23;12.43;;;5.57;;
5026;SDS011;2532;52.480;13.354;2023-05-24T18:03:51;10.70;;;4.83;;
5026;SDS011;2532;52.480;13.354;2023-05-24T18:06:18;11.70;;;5.50;;
5026;SDS011;2532;52.480;13.354;2023-05-24T18:08:47;12.90;;;6.00;;
5026;SDS011;2532;52.480;13.354;2023-05-24T18:11:14;10.77;;;5.17;;
5026;SDS011;2532;52.480;13.354;2023-05-24T18:13:41;13.23;;;5.37;;
5026;SDS011;2532;52.480;13.354;2023-05-24T18:16:09;11.87;;;5.70;;
5026;SDS011;2532;52.480;13.354;2023-05-24T18:18:36;11.20;;;5.77;;
5026;SDS011;2532;52.480;13.354;2023-05-24T18:21:03;8.83;;;4.90;;
5026;SDS011;2532;52.480;13.354;2023-05-24T18:23:31;10.83;;;4.87;;
5026;SDS011;2532;52.480;13.354;2023-05-24T18:26:04;12.50;;;5.77;;
5026;SDS011;2532;52.480;13.354;2023-05-24T18:28:32;12.03;;;6.57;;
5026;SDS011;2532;52.480;13.354;2023-05-24T18:31:01;12.40;;;5.20;;
5026;SDS011;2532;52.480;13.354;2023-05-24T18:33:27;10.17;;;5.20;;
5026;SDS011;2532;52.480;13.354;2023-05-24T18:35:54;14.67;;;5.57;;
5026;SDS011;2532;52.480;13.354;2023-05-24T18:38:21;12.57;;;5.07;;
5026;SDS011;2532;52.480;13.354;2023-05-24T18:40:48;13.30;;;5.80;;
5026;SDS011;2532;52.480;13.354;2023-05-24T18:43:17;14.70;;;5.33;;
5026;SDS011;2532;52.480;13.354;2023-05-24T18:45:44;10.83;;;4.93;;
5026;SDS011;2532;52.480;13.354;2023-05-24T18:48:11;11.53;;;4.97;;
5026;SDS011;2532;52.480;13.354;2023-05-24T18:50:38;9.73;;;5.87;;
5026;SDS011;2532;52.480;13.354;2023-05-24T18:53:05;18.80;;;6.10;;
5026;SDS011;2532;52.480;13.354;2023-05-24T18:55:32;9.70;;;5.43;;
5026;SDS011;2532;52.480;13.354;2023-05-24T18:57:59;11.53;;;5.27;;
5026;SDS011;2532;52.480;13.354;2023-05-24T19:00:28;11.93;;;5.93;;
5026;SDS011;2532;52.480;13.354;2023-05-24T19:02:55;13.43;;;6.00;;
5026;SDS011;2532;52.480;13.354;2023-05-24T19:05:22;15.03;;;6.70;;